sensor_id;sensor_type;location;lat;lon;timestamp;temperature;humidity
60909;DHT22;46780;48.128;-1.704;2022-10-31T00:02:25;15.20;93.80
60909;DHT22;46780;48.128;-1.704;2022-10-31T00:04:52;15.20;93.80
60909;DHT22;46780;48.128;-1.704;2022-10-31T00:07:20;15.20;93.80
60909;DHT22;46780;48.128;-1.704;2022-10-31T00:09:46;15.20;93.80
60909;DHT22;46780;48.128;-1.704;2022-10-31T00:12:12;15.20;93.70
60909;DHT22;46780;48.128;-1.704;2022-10-31T00:14:39;15.20;93.70
60909;DHT22;46780;48.128;-1.704;2022-10-31T00:17:05;15.20;93.70
60909;DHT22;46780;48.128;-1.704;2022-10-31T00:19:32;15.10;93.60
60909;DHT22;46780;48.128;-1.704;2022-10-31T00:21:58;15.10;93.70
60909;DHT22;46780;48.128;-1.704;2022-10-31T00:24:26;15.10;93.70
60909;DHT22;46780;48.128;-1.704;2022-10-31T00:26:53;15.10;93.80
60909;DHT22;46780;48.128;-1.704;2022-10-31T00:29:19;15.10;93.90
60909;DHT22;46780;48.128;-1.704;2022-10-31T00:31:45;15.00;93.90
60909;DHT22;46780;48.128;-1.704;2022-10-31T00:34:12;15.00;93.90
60909;DHT22;46780;48.128;-1.704;2022-10-31T00:36:38;15.00;94.00
60909;DHT22;46780;48.128;-1.704;2022-10-31T00:39:05;15.00;94.10
60909;DHT22;46780;48.128;-1.704;2022-10-31T00:41:33;15.00;94.10
60909;DHT22;46780;48.128;-1.704;2022-10-31T00:43:59;15.00;94.30
60909;DHT22;46780;48.128;-1.704;2022-10-31T00:46:26;15.00;94.30
60909;DHT22;46780;48.128;-1.704;2022-10-31T00:48:52;14.90;94.30
60909;DHT22;46780;48.128;-1.704;2022-10-31T00:51:19;14.90;94.30
60909;DHT22;46780;48.128;-1.704;2022-10-31T00:53:45;14.90;94.30
60909;DHT22;46780;48.128;-1.704;2022-10-31T00:56:12;14.90;94.30
60909;DHT22;46780;48.128;-1.704;2022-10-31T00:58:40;14.90;94.30
60909;DHT22;46780;48.128;-1.704;2022-10-31T01:01:06;14.90;94.40
60909;DHT22;46780;48.128;-1.704;2022-10-31T01:03:33;14.90;94.40
60909;DHT22;46780;48.128;-1.704;2022-10-31T01:06:02;14.80;94.50
60909;DHT22;46780;48.128;-1.704;2022-10-31T01:08:29;14.80;94.60
60909;DHT22;46780;48.128;-1.704;2022-10-31T01:11:05;14.80;94.70
60909;DHT22;46780;48.128;-1.704;2022-10-31T01:13:31;14.80;94.70
60909;DHT22;46780;48.128;-1.704;2022-10-31T01:16:01;14.80;94.80
60909;DHT22;46780;48.128;-1.704;2022-10-31T01:18:28;14.80;94.80
60909;DHT22;46780;48.128;-1.704;2022-10-31T01:21:00;14.80;94.90
60909;DHT22;46780;48.128;-1.704;2022-10-31T01:23:27;14.80;94.90
60909;DHT22;46780;48.128;-1.704;2022-10-31T01:26:02;14.80;95.00
60909;DHT22;46780;48.128;-1.704;2022-10-31T01:28:29;14.80;94.90
60909;DHT22;46780;48.128;-1.704;2022-10-31T01:31:01;14.80;95.00
60909;DHT22;46780;48.128;-1.704;2022-10-31T01:33:28;14.80;94.90
60909;DHT22;46780;48.128;-1.704;2022-10-31T01:35:54;14.80;94.90
60909;DHT22;46780;48.128;-1.704;2022-10-31T01:38:21;14.80;94.90
60909;DHT22;46780;48.128;-1.704;2022-10-31T01:40:47;14.80;95.00
60909;DHT22;46780;48.128;-1.704;2022-10-31T01:43:14;14.80;94.90
60909;DHT22;46780;48.128;-1.704;2022-10-31T01:45:42;14.80;95.00
60909;DHT22;46780;48.128;-1.704;2022-10-31T01:48:14;14.80;95.00
60909;DHT22;46780;48.128;-1.704;2022-10-31T01:50:43;14.80;95.10
60909;DHT22;46780;48.128;-1.704;2022-10-31T01:53:12;14.80;95.10
60909;DHT22;46780;48.128;-1.704;2022-10-31T01:55:40;14.70;95.10
60909;DHT22;46780;48.128;-1.704;2022-10-31T01:58:11;14.70;95.10
60909;DHT22;46780;48.128;-1.704;2022-10-31T02:00:38;14.70;95.00
60909;DHT22;46780;48.128;-1.704;2022-10-31T02:03:05;14.70;95.10
60909;DHT22;46780;48.128;-1.704;2022-10-31T02:05:34;14.70;95.10
60909;DHT22;46780;48.128;-1.704;2022-10-31T02:08:03;14.70;95.10
60909;DHT22;46780;48.128;-1.704;2022-10-31T02:10:31;14.70;95.20
60909;DHT22;46780;48.128;-1.704;2022-10-31T02:13:01;14.70;95.10
60909;DHT22;46780;48.128;-1.704;2022-10-31T02:15:28;14.70;95.10
60909;DHT22;46780;48.128;-1.704;2022-10-31T02:17:56;14.70;95.10
60909;DHT22;46780;48.128;-1.704;2022-10-31T02:20:24;14.60;95.10
60909;DHT22;46780;48.128;-1.704;2022-10-31T02:23:20;14.60;95.10
60909;DHT22;46780;48.128;-1.704;2022-10-31T02:26:11;14.50;95.20
60909;DHT22;46780;48.128;-1.704;2022-10-31T02:28:53;14.50;95.40
60909;DHT22;46780;48.128;-1.704;2022-10-31T02:31:33;14.40;95.50
60909;DHT22;46780;48.128;-1.704;2022-10-31T02:34:05;14.40;95.60
60909;DHT22;46780;48.128;-1.704;2022-10-31T02:36:43;14.40;95.70
60909;DHT22;46780;48.128;-1.704;2022-10-31T02:39:18;14.40;95.70
60909;DHT22;46780;48.128;-1.704;2022-10-31T02:41:49;14.40;95.80
60909;DHT22;46780;48.128;-1.704;2022-10-31T02:44:22;14.40;95.80
60909;DHT22;46780;48.128;-1.704;2022-10-31T02:46:54;14.40;95.90
60909;DHT22;46780;48.128;-1.704;2022-10-31T02:49:26;14.40;95.90
60909;DHT22;46780;48.128;-1.704;2022-10-31T02:51:54;14.40;96.00
60909;DHT22;46780;48.128;-1.704;2022-10-31T02:54:23;14.30;96.00
60909;DHT22;46780;48.128;-1.704;2022-10-31T02:56:53;14.30;96.10
60909;DHT22;46780;48.128;-1.704;2022-10-31T02:59:21;14.20;96.20
60909;DHT22;46780;48.128;-1.704;2022-10-31T03:01:57;14.10;96.40
60909;DHT22;46780;48.128;-1.704;2022-10-31T03:07:41;13.90;97.00
60909;DHT22;46780;48.128;-1.704;2022-10-31T03:10:16;13.90;97.40
60909;DHT22;46780;48.128;-1.704;2022-10-31T03:12:50;13.90;97.60
60909;DHT22;46780;48.128;-1.704;2022-10-31T03:15:24;14.00;97.60
60909;DHT22;46780;48.128;-1.704;2022-10-31T03:17:58;13.90;97.60
60909;DHT22;46780;48.128;-1.704;2022-10-31T03:20:36;14.00;97.60
60909;DHT22;46780;48.128;-1.704;2022-10-31T03:23:06;14.00;97.60
60909;DHT22;46780;48.128;-1.704;2022-10-31T03:25:35;13.90;97.60
60909;DHT22;46780;48.128;-1.704;2022-10-31T03:28:04;14.00;97.70
60909;DHT22;46780;48.128;-1.704;2022-10-31T03:30:33;14.00;97.70
60909;DHT22;46780;48.128;-1.704;2022-10-31T03:33:07;14.00;97.70
60909;DHT22;46780;48.128;-1.704;2022-10-31T03:35:36;13.90;97.70
60909;DHT22;46780;48.128;-1.704;2022-10-31T03:38:04;14.00;97.70
60909;DHT22;46780;48.128;-1.704;2022-10-31T03:40:31;13.90;97.70
60909;DHT22;46780;48.128;-1.704;2022-10-31T03:43:02;13.90;97.70
60909;DHT22;46780;48.128;-1.704;2022-10-31T03:45:31;13.90;97.70
60909;DHT22;46780;48.128;-1.704;2022-10-31T03:47:59;13.80;97.80
60909;DHT22;46780;48.128;-1.704;2022-10-31T03:50:30;13.80;97.90
60909;DHT22;46780;48.128;-1.704;2022-10-31T03:53:03;13.80;98.20
60909;DHT22;46780;48.128;-1.704;2022-10-31T03:55:34;13.80;98.10
60909;DHT22;46780;48.128;-1.704;2022-10-31T03:58:08;13.80;98.20
60909;DHT22;46780;48.128;-1.704;2022-10-31T04:00:38;13.80;98.30
60909;DHT22;46780;48.128;-1.704;2022-10-31T04:03:07;13.80;98.30
60909;DHT22;46780;48.128;-1.704;2022-10-31T04:05:37;13.70;98.40
60909;DHT22;46780;48.128;-1.704;2022-10-31T04:08:08;13.70;98.50
60909;DHT22;46780;48.128;-1.704;2022-10-31T04:10:37;13.70;98.50
60909;DHT22;46780;48.128;-1.704;2022-10-31T04:13:07;13.70;98.50
60909;DHT22;46780;48.128;-1.704;2022-10-31T04:15:35;13.70;98.60
60909;DHT22;46780;48.128;-1.704;2022-10-31T04:18:04;13.70;98.60
60909;DHT22;46780;48.128;-1.704;2022-10-31T04:20:32;13.70;98.70
60909;DHT22;46780;48.128;-1.704;2022-10-31T04:23:00;13.70;98.70
60909;DHT22;46780;48.128;-1.704;2022-10-31T04:25:27;13.70;98.60
60909;DHT22;46780;48.128;-1.704;2022-10-31T04:27:54;13.70;98.60
60909;DHT22;46780;48.128;-1.704;2022-10-31T04:30:20;13.80;98.60
60909;DHT22;46780;48.128;-1.704;2022-10-31T04:32:47;13.90;98.50
60909;DHT22;46780;48.128;-1.704;2022-10-31T04:35:13;13.90;98.40
60909;DHT22;46780;48.128;-1.704;2022-10-31T04:37:40;13.90;98.30
60909;DHT22;46780;48.128;-1.704;2022-10-31T04:40:09;13.90;98.00
60909;DHT22;46780;48.128;-1.704;2022-10-31T04:42:36;13.90;98.00
60909;DHT22;46780;48.128;-1.704;2022-10-31T04:45:03;13.80;98.00
60909;DHT22;46780;48.128;-1.704;2022-10-31T04:47:31;13.80;98.00
60909;DHT22;46780;48.128;-1.704;2022-10-31T04:49:57;13.80;97.80
60909;DHT22;46780;48.128;-1.704;2022-10-31T04:52:24;13.70;97.80
60909;DHT22;46780;48.128;-1.704;2022-10-31T04:54:50;13.80;97.90
60909;DHT22;46780;48.128;-1.704;2022-10-31T04:57:18;13.80;97.90
60909;DHT22;46780;48.128;-1.704;2022-10-31T04:59:44;13.80;97.80
60909;DHT22;46780;48.128;-1.704;2022-10-31T05:02:11;13.80;97.80
60909;DHT22;46780;48.128;-1.704;2022-10-31T05:04:37;13.90;97.80
60909;DHT22;46780;48.128;-1.704;2022-10-31T05:07:04;13.80;97.80
60909;DHT22;46780;48.128;-1.704;2022-10-31T05:09:30;13.80;97.80
60909;DHT22;46780;48.128;-1.704;2022-10-31T05:11:57;13.90;97.80
60909;DHT22;46780;48.128;-1.704;2022-10-31T05:14:24;13.90;97.70
60909;DHT22;46780;48.128;-1.704;2022-10-31T05:16:51;13.90;97.70
60909;DHT22;46780;48.128;-1.704;2022-10-31T05:19:17;13.90;97.60
60909;DHT22;46780;48.128;-1.704;2022-10-31T05:21:44;13.80;97.70
60909;DHT22;46780;48.128;-1.704;2022-10-31T05:24:10;13.70;97.70
60909;DHT22;46780;48.128;-1.704;2022-10-31T05:26:37;13.70;97.90
60909;DHT22;46780;48.128;-1.704;2022-10-31T05:29:03;13.70;97.90
60909;DHT22;46780;48.128;-1.704;2022-10-31T05:31:31;13.70;97.90
60909;DHT22;46780;48.128;-1.704;2022-10-31T05:33:58;13.80;98.00
60909;DHT22;46780;48.128;-1.704;2022-10-31T05:36:24;13.80;98.00
60909;DHT22;46780;48.128;-1.704;2022-10-31T05:38:50;13.80;97.90
60909;DHT22;46780;48.128;-1.704;2022-10-31T05:41:17;13.80;97.90
60909;DHT22;46780;48.128;-1.704;2022-10-31T05:43:43;13.70;97.90
60909;DHT22;46780;48.128;-1.704;2022-10-31T05:46:10;13.80;98.00
60909;DHT22;46780;48.128;-1.704;2022-10-31T05:48:38;13.80;98.00
60909;DHT22;46780;48.128;-1.704;2022-10-31T05:51:05;13.80;97.90
60909;DHT22;46780;48.128;-1.704;2022-10-31T05:53:31;13.80;97.90
60909;DHT22;46780;48.128;-1.704;2022-10-31T05:55:58;13.80;98.00
60909;DHT22;46780;48.128;-1.704;2022-10-31T05:58:24;13.80;98.00
60909;DHT22;46780;48.128;-1.704;2022-10-31T06:00:51;13.80;98.00
60909;DHT22;46780;48.128;-1.704;2022-10-31T06:03:17;13.80;98.00
60909;DHT22;46780;48.128;-1.704;2022-10-31T06:05:45;13.80;98.00
60909;DHT22;46780;48.128;-1.704;2022-10-31T06:08:11;13.90;98.10
60909;DHT22;46780;48.128;-1.704;2022-10-31T06:10:38;13.90;98.10
60909;DHT22;46780;48.128;-1.704;2022-10-31T06:13:04;13.90;98.20
60909;DHT22;46780;48.128;-1.704;2022-10-31T06:15:31;13.90;98.10
60909;DHT22;46780;48.128;-1.704;2022-10-31T06:17:58;13.90;98.10
60909;DHT22;46780;48.128;-1.704;2022-10-31T06:20:25;13.90;98.10
60909;DHT22;46780;48.128;-1.704;2022-10-31T06:22:53;13.90;98.20
60909;DHT22;46780;48.128;-1.704;2022-10-31T06:25:20;13.90;98.20
60909;DHT22;46780;48.128;-1.704;2022-10-31T06:27:46;13.90;98.40
60909;DHT22;46780;48.128;-1.704;2022-10-31T06:30:13;13.90;98.40
60909;DHT22;46780;48.128;-1.704;2022-10-31T06:32:40;13.90;98.50
60909;DHT22;46780;48.128;-1.704;2022-10-31T06:35:07;13.80;98.50
60909;DHT22;46780;48.128;-1.704;2022-10-31T06:37:33;13.80;98.60
60909;DHT22;46780;48.128;-1.704;2022-10-31T06:40:01;13.80;98.70
60909;DHT22;46780;48.128;-1.704;2022-10-31T06:42:27;13.80;98.90
60909;DHT22;46780;48.128;-1.704;2022-10-31T06:44:54;13.80;99.00
60909;DHT22;46780;48.128;-1.704;2022-10-31T06:47:20;13.70;99.10
60909;DHT22;46780;48.128;-1.704;2022-10-31T06:49:47;13.80;99.20
60909;DHT22;46780;48.128;-1.704;2022-10-31T06:52:13;13.80;99.20
60909;DHT22;46780;48.128;-1.704;2022-10-31T06:54:40;13.80;99.30
60909;DHT22;46780;48.128;-1.704;2022-10-31T06:57:08;13.70;99.40
60909;DHT22;46780;48.128;-1.704;2022-10-31T06:59:34;13.80;99.50
60909;DHT22;46780;48.128;-1.704;2022-10-31T07:02:01;13.70;99.60
60909;DHT22;46780;48.128;-1.704;2022-10-31T07:04:27;13.70;99.80
60909;DHT22;46780;48.128;-1.704;2022-10-31T07:06:54;13.70;99.80
60909;DHT22;46780;48.128;-1.704;2022-10-31T07:09:20;13.70;99.80
60909;DHT22;46780;48.128;-1.704;2022-10-31T07:11:46;13.70;99.90
60909;DHT22;46780;48.128;-1.704;2022-10-31T07:14:14;13.70;99.90
60909;DHT22;46780;48.128;-1.704;2022-10-31T07:16:41;13.80;99.90
60909;DHT22;46780;48.128;-1.704;2022-10-31T07:19:07;13.80;99.90
60909;DHT22;46780;48.128;-1.704;2022-10-31T07:21:34;13.80;99.90
60909;DHT22;46780;48.128;-1.704;2022-10-31T07:24:00;13.80;99.90
60909;DHT22;46780;48.128;-1.704;2022-10-31T07:26:26;13.80;99.90
60909;DHT22;46780;48.128;-1.704;2022-10-31T07:28:53;13.90;99.90
60909;DHT22;46780;48.128;-1.704;2022-10-31T07:31:21;13.90;99.90
60909;DHT22;46780;48.128;-1.704;2022-10-31T07:33:47;13.90;99.90
60909;DHT22;46780;48.128;-1.704;2022-10-31T07:36:14;13.90;99.90
60909;DHT22;46780;48.128;-1.704;2022-10-31T07:38:40;14.00;99.90
60909;DHT22;46780;48.128;-1.704;2022-10-31T07:41:07;14.00;99.90
60909;DHT22;46780;48.128;-1.704;2022-10-31T07:43:33;14.00;99.90
60909;DHT22;46780;48.128;-1.704;2022-10-31T07:46:00;14.00;99.90
60909;DHT22;46780;48.128;-1.704;2022-10-31T07:48:28;14.10;99.90
60909;DHT22;46780;48.128;-1.704;2022-10-31T07:50:55;14.10;99.90
60909;DHT22;46780;48.128;-1.704;2022-10-31T07:53:21;14.10;99.90
60909;DHT22;46780;48.128;-1.704;2022-10-31T07:55:48;14.10;99.90
60909;DHT22;46780;48.128;-1.704;2022-10-31T07:58:15;14.10;99.90
60909;DHT22;46780;48.128;-1.704;2022-10-31T08:00:43;14.20;99.90
60909;DHT22;46780;48.128;-1.704;2022-10-31T08:03:11;14.20;99.90
60909;DHT22;46780;48.128;-1.704;2022-10-31T08:05:40;14.20;99.90
60909;DHT22;46780;48.128;-1.704;2022-10-31T08:08:06;14.20;99.90
60909;DHT22;46780;48.128;-1.704;2022-10-31T08:10:33;14.30;99.90
60909;DHT22;46780;48.128;-1.704;2022-10-31T08:13:02;14.30;99.90
60909;DHT22;46780;48.128;-1.704;2022-10-31T08:15:29;14.50;99.90
60909;DHT22;46780;48.128;-1.704;2022-10-31T08:17:55;14.50;99.90
60909;DHT22;46780;48.128;-1.704;2022-10-31T08:20:22;14.60;99.80
60909;DHT22;46780;48.128;-1.704;2022-10-31T08:22:54;14.60;99.60
60909;DHT22;46780;48.128;-1.704;2022-10-31T08:25:21;14.70;99.50
60909;DHT22;46780;48.128;-1.704;2022-10-31T08:27:52;14.70;99.40
60909;DHT22;46780;48.128;-1.704;2022-10-31T08:30:18;14.90;99.40
60909;DHT22;46780;48.128;-1.704;2022-10-31T08:32:46;14.70;99.10
60909;DHT22;46780;48.128;-1.704;2022-10-31T08:35:12;14.80;99.00
60909;DHT22;46780;48.128;-1.704;2022-10-31T08:37:39;14.80;99.00
60909;DHT22;46780;48.128;-1.704;2022-10-31T08:40:08;14.80;98.90
60909;DHT22;46780;48.128;-1.704;2022-10-31T08:42:35;14.80;99.00
60909;DHT22;46780;48.128;-1.704;2022-10-31T08:45:02;14.80;99.00
60909;DHT22;46780;48.128;-1.704;2022-10-31T08:47:28;14.90;99.00
60909;DHT22;46780;48.128;-1.704;2022-10-31T08:49:55;14.90;98.90
60909;DHT22;46780;48.128;-1.704;2022-10-31T08:52:23;14.90;98.70
60909;DHT22;46780;48.128;-1.704;2022-10-31T08:54:49;14.90;98.60
60909;DHT22;46780;48.128;-1.704;2022-10-31T08:57:17;15.00;98.50
60909;DHT22;46780;48.128;-1.704;2022-10-31T08:59:44;15.00;98.40
60909;DHT22;46780;48.128;-1.704;2022-10-31T09:02:10;15.00;98.30
60909;DHT22;46780;48.128;-1.704;2022-10-31T09:04:37;15.00;98.20
60909;DHT22;46780;48.128;-1.704;2022-10-31T09:07:03;15.10;98.10
60909;DHT22;46780;48.128;-1.704;2022-10-31T09:09:30;15.00;98.00
60909;DHT22;46780;48.128;-1.704;2022-10-31T09:11:56;15.10;98.00
60909;DHT22;46780;48.128;-1.704;2022-10-31T09:14:24;15.10;97.90
60909;DHT22;46780;48.128;-1.704;2022-10-31T09:16:51;15.10;97.80
60909;DHT22;46780;48.128;-1.704;2022-10-31T09:19:17;15.10;97.80
60909;DHT22;46780;48.128;-1.704;2022-10-31T09:21:44;15.10;97.70
60909;DHT22;46780;48.128;-1.704;2022-10-31T09:24:10;15.20;97.70
60909;DHT22;46780;48.128;-1.704;2022-10-31T09:26:37;15.10;97.70
60909;DHT22;46780;48.128;-1.704;2022-10-31T09:29:03;15.20;97.60
60909;DHT22;46780;48.128;-1.704;2022-10-31T09:31:31;15.20;97.70
60909;DHT22;46780;48.128;-1.704;2022-10-31T09:33:58;15.20;97.70
60909;DHT22;46780;48.128;-1.704;2022-10-31T09:36:24;15.20;97.50
60909;DHT22;46780;48.128;-1.704;2022-10-31T09:38:51;15.20;97.50
60909;DHT22;46780;48.128;-1.704;2022-10-31T09:41:23;15.10;97.50
60909;DHT22;46780;48.128;-1.704;2022-10-31T09:43:57;15.20;97.60
60909;DHT22;46780;48.128;-1.704;2022-10-31T09:46:32;15.20;97.60
60909;DHT22;46780;48.128;-1.704;2022-10-31T09:49:16;15.10;97.70
60909;DHT22;46780;48.128;-1.704;2022-10-31T09:51:51;15.10;97.60
60909;DHT22;46780;48.128;-1.704;2022-10-31T09:54:28;15.10;97.60
60909;DHT22;46780;48.128;-1.704;2022-10-31T09:56:56;15.10;97.80
60909;DHT22;46780;48.128;-1.704;2022-10-31T09:59:26;15.10;98.00
60909;DHT22;46780;48.128;-1.704;2022-10-31T10:01:56;15.10;98.10
60909;DHT22;46780;48.128;-1.704;2022-10-31T10:04:36;15.10;98.10
60909;DHT22;46780;48.128;-1.704;2022-10-31T10:07:06;15.00;98.50
60909;DHT22;46780;48.128;-1.704;2022-10-31T10:09:34;15.10;98.60
60909;DHT22;46780;48.128;-1.704;2022-10-31T10:12:08;15.10;98.70
60909;DHT22;46780;48.128;-1.704;2022-10-31T10:14:50;15.20;98.90
60909;DHT22;46780;48.128;-1.704;2022-10-31T10:17:30;15.30;99.10
60909;DHT22;46780;48.128;-1.704;2022-10-31T10:20:14;15.40;99.00
60909;DHT22;46780;48.128;-1.704;2022-10-31T10:22:47;15.60;98.80
60909;DHT22;46780;48.128;-1.704;2022-10-31T10:25:21;15.80;98.20
60909;DHT22;46780;48.128;-1.704;2022-10-31T10:28:06;15.90;97.80
60909;DHT22;46780;48.128;-1.704;2022-10-31T10:30:38;16.00;97.20
60909;DHT22;46780;48.128;-1.704;2022-10-31T10:33:10;16.10;97.00
60909;DHT22;46780;48.128;-1.704;2022-10-31T10:35:42;16.20;97.50
60909;DHT22;46780;48.128;-1.704;2022-10-31T10:38:15;16.50;97.20
60909;DHT22;46780;48.128;-1.704;2022-10-31T10:40:43;16.70;96.20
60909;DHT22;46780;48.128;-1.704;2022-10-31T10:43:19;16.90;95.50
60909;DHT22;46780;48.128;-1.704;2022-10-31T10:46:00;17.00;94.70
60909;DHT22;46780;48.128;-1.704;2022-10-31T10:48:40;17.10;94.30
60909;DHT22;46780;48.128;-1.704;2022-10-31T10:51:15;17.10;94.20
60909;DHT22;46780;48.128;-1.704;2022-10-31T10:53:54;17.20;94.70
60909;DHT22;46780;48.128;-1.704;2022-10-31T10:56:34;17.50;94.60
60909;DHT22;46780;48.128;-1.704;2022-10-31T10:59:03;17.70;93.40
60909;DHT22;46780;48.128;-1.704;2022-10-31T11:01:30;17.90;92.80
60909;DHT22;46780;48.128;-1.704;2022-10-31T11:03:58;18.00;92.30
60909;DHT22;46780;48.128;-1.704;2022-10-31T11:06:25;18.00;92.00
60909;DHT22;46780;48.128;-1.704;2022-10-31T11:08:52;17.90;91.50
60909;DHT22;46780;48.128;-1.704;2022-10-31T11:11:24;17.80;91.60
60909;DHT22;46780;48.128;-1.704;2022-10-31T11:13:57;17.60;91.90
60909;DHT22;46780;48.128;-1.704;2022-10-31T11:16:30;17.50;92.20
60909;DHT22;46780;48.128;-1.704;2022-10-31T11:19:09;17.40;92.70
60909;DHT22;46780;48.128;-1.704;2022-10-31T11:21:40;17.50;93.00
60909;DHT22;46780;48.128;-1.704;2022-10-31T11:24:15;17.40;92.90
60909;DHT22;46780;48.128;-1.704;2022-10-31T11:26:43;17.20;93.00
60909;DHT22;46780;48.128;-1.704;2022-10-31T11:29:15;17.20;93.20
60909;DHT22;46780;48.128;-1.704;2022-10-31T11:31:44;17.10;93.70
60909;DHT22;46780;48.128;-1.704;2022-10-31T11:34:18;17.00;93.90
60909;DHT22;46780;48.128;-1.704;2022-10-31T11:36:50;17.00;94.00
60909;DHT22;46780;48.128;-1.704;2022-10-31T11:39:18;16.90;94.60
60909;DHT22;46780;48.128;-1.704;2022-10-31T11:41:46;16.90;94.40
60909;DHT22;46780;48.128;-1.704;2022-10-31T11:44:17;16.80;94.50
60909;DHT22;46780;48.128;-1.704;2022-10-31T11:46:47;16.70;94.70
60909;DHT22;46780;48.128;-1.704;2022-10-31T11:49:19;16.70;94.90
60909;DHT22;46780;48.128;-1.704;2022-10-31T11:51:49;16.70;95.10
60909;DHT22;46780;48.128;-1.704;2022-10-31T11:54:23;16.60;95.30
60909;DHT22;46780;48.128;-1.704;2022-10-31T11:56:50;16.60;95.50
60909;DHT22;46780;48.128;-1.704;2022-10-31T11:59:26;16.60;95.70
60909;DHT22;46780;48.128;-1.704;2022-10-31T12:01:54;16.50;95.90
60909;DHT22;46780;48.128;-1.704;2022-10-31T12:04:30;16.50;96.10
60909;DHT22;46780;48.128;-1.704;2022-10-31T12:06:57;16.50;96.20
60909;DHT22;46780;48.128;-1.704;2022-10-31T12:09:26;16.50;96.40
60909;DHT22;46780;48.128;-1.704;2022-10-31T12:15:08;16.50;96.50
60909;DHT22;46780;48.128;-1.704;2022-10-31T12:17:39;16.50;96.70
60909;DHT22;46780;48.128;-1.704;2022-10-31T12:20:19;16.50;96.80
60909;DHT22;46780;48.128;-1.704;2022-10-31T12:22:51;16.50;96.90
60909;DHT22;46780;48.128;-1.704;2022-10-31T12:25:34;16.50;97.00
60909;DHT22;46780;48.128;-1.704;2022-10-31T12:28:30;16.60;97.00
60909;DHT22;46780;48.128;-1.704;2022-10-31T12:31:07;16.60;97.00
60909;DHT22;46780;48.128;-1.704;2022-10-31T12:33:49;16.60;97.10
60909;DHT22;46780;48.128;-1.704;2022-10-31T12:36:33;16.60;97.20
60909;DHT22;46780;48.128;-1.704;2022-10-31T12:39:24;16.70;97.20
60909;DHT22;46780;48.128;-1.704;2022-10-31T12:41:52;16.70;97.20
60909;DHT22;46780;48.128;-1.704;2022-10-31T12:44:48;16.70;97.40
60909;DHT22;46780;48.128;-1.704;2022-10-31T12:47:51;16.80;97.20
60909;DHT22;46780;48.128;-1.704;2022-10-31T12:50:29;16.90;97.20
60909;DHT22;46780;48.128;-1.704;2022-10-31T12:53:10;17.00;97.20
60909;DHT22;46780;48.128;-1.704;2022-10-31T12:55:48;17.10;97.20
60909;DHT22;46780;48.128;-1.704;2022-10-31T12:58:32;17.10;97.30
60909;DHT22;46780;48.128;-1.704;2022-10-31T13:01:07;17.50;97.60
60909;DHT22;46780;48.128;-1.704;2022-10-31T13:03:40;17.20;97.00
60909;DHT22;46780;48.128;-1.704;2022-10-31T13:06:12;16.70;96.90
60909;DHT22;46780;48.128;-1.704;2022-10-31T13:08:45;17.30;96.90
60909;DHT22;46780;48.128;-1.704;2022-10-31T13:11:16;17.50;97.30
60909;DHT22;46780;48.128;-1.704;2022-10-31T13:13:47;17.40;97.30
60909;DHT22;46780;48.128;-1.704;2022-10-31T13:16:17;17.40;97.10
60909;DHT22;46780;48.128;-1.704;2022-10-31T13:18:47;17.80;97.50
60909;DHT22;46780;48.128;-1.704;2022-10-31T13:21:19;17.50;96.90
60909;DHT22;46780;48.128;-1.704;2022-10-31T13:23:50;17.70;97.30
60909;DHT22;46780;48.128;-1.704;2022-10-31T13:26:21;17.70;97.00
60909;DHT22;46780;48.128;-1.704;2022-10-31T13:28:54;17.70;96.90
60909;DHT22;46780;48.128;-1.704;2022-10-31T13:31:22;17.70;96.90
60909;DHT22;46780;48.128;-1.704;2022-10-31T13:33:52;17.70;97.20
60909;DHT22;46780;48.128;-1.704;2022-10-31T13:36:26;17.80;97.30
60909;DHT22;46780;48.128;-1.704;2022-10-31T13:38:59;17.80;96.90
60909;DHT22;46780;48.128;-1.704;2022-10-31T13:41:43;17.70;96.90
60909;DHT22;46780;48.128;-1.704;2022-10-31T13:44:14;17.70;96.80
60909;DHT22;46780;48.128;-1.704;2022-10-31T13:46:43;17.70;97.00
60909;DHT22;46780;48.128;-1.704;2022-10-31T13:49:37;17.70;97.10
60909;DHT22;46780;48.128;-1.704;2022-10-31T13:52:14;17.70;96.80
60909;DHT22;46780;48.128;-1.704;2022-10-31T13:54:45;17.70;97.00
60909;DHT22;46780;48.128;-1.704;2022-10-31T13:57:20;17.70;97.00
60909;DHT22;46780;48.128;-1.704;2022-10-31T13:59:50;17.70;97.00
60909;DHT22;46780;48.128;-1.704;2022-10-31T14:02:22;17.70;96.90
60909;DHT22;46780;48.128;-1.704;2022-10-31T14:04:53;17.80;96.90
60909;DHT22;46780;48.128;-1.704;2022-10-31T14:07:22;17.80;96.80
60909;DHT22;46780;48.128;-1.704;2022-10-31T14:09:55;17.80;96.90
60909;DHT22;46780;48.128;-1.704;2022-10-31T14:12:26;17.80;96.80
60909;DHT22;46780;48.128;-1.704;2022-10-31T14:14:56;17.80;96.70
60909;DHT22;46780;48.128;-1.704;2022-10-31T14:17:25;17.80;96.70
60909;DHT22;46780;48.128;-1.704;2022-10-31T14:25:54;17.90;96.10
60909;DHT22;46780;48.128;-1.704;2022-10-31T14:28:33;17.90;96.10
60909;DHT22;46780;48.128;-1.704;2022-10-31T14:31:01;17.90;95.80
60909;DHT22;46780;48.128;-1.704;2022-10-31T14:33:29;18.00;95.60
60909;DHT22;46780;48.128;-1.704;2022-10-31T14:35:59;18.00;95.20
60909;DHT22;46780;48.128;-1.704;2022-10-31T14:38:30;18.10;95.00
60909;DHT22;46780;48.128;-1.704;2022-10-31T14:41:28;18.10;94.70
60909;DHT22;46780;48.128;-1.704;2022-10-31T14:44:18;18.10;94.50
60909;DHT22;46780;48.128;-1.704;2022-10-31T14:46:54;18.10;94.30
60909;DHT22;46780;48.128;-1.704;2022-10-31T14:49:42;18.20;94.10
60909;DHT22;46780;48.128;-1.704;2022-10-31T14:52:14;18.20;94.00
60909;DHT22;46780;48.128;-1.704;2022-10-31T14:54:43;18.20;93.90
60909;DHT22;46780;48.128;-1.704;2022-10-31T14:57:20;18.30;93.60
60909;DHT22;46780;48.128;-1.704;2022-10-31T14:59:50;18.40;94.00
60909;DHT22;46780;48.128;-1.704;2022-10-31T15:02:20;18.30;93.50
60909;DHT22;46780;48.128;-1.704;2022-10-31T15:04:51;18.20;92.10
60909;DHT22;46780;48.128;-1.704;2022-10-31T15:07:20;18.20;90.30
60909;DHT22;46780;48.128;-1.704;2022-10-31T15:09:55;18.20;89.70
60909;DHT22;46780;48.128;-1.704;2022-10-31T15:12:26;18.20;89.20
60909;DHT22;46780;48.128;-1.704;2022-10-31T15:14:52;18.20;85.00
60909;DHT22;46780;48.128;-1.704;2022-10-31T15:17:20;18.10;85.30
60909;DHT22;46780;48.128;-1.704;2022-10-31T15:19:47;17.80;88.50
60909;DHT22;46780;48.128;-1.704;2022-10-31T15:22:15;17.30;90.90
60909;DHT22;46780;48.128;-1.704;2022-10-31T15:24:42;16.90;92.10
60909;DHT22;46780;48.128;-1.704;2022-10-31T15:27:12;16.60;93.20
60909;DHT22;46780;48.128;-1.704;2022-10-31T15:29:49;16.40;93.90
60909;DHT22;46780;48.128;-1.704;2022-10-31T15:32:20;16.30;94.70
60909;DHT22;46780;48.128;-1.704;2022-10-31T15:34:46;16.20;95.00
60909;DHT22;46780;48.128;-1.704;2022-10-31T15:37:15;16.10;95.10
60909;DHT22;46780;48.128;-1.704;2022-10-31T15:39:42;16.00;95.70
60909;DHT22;46780;48.128;-1.704;2022-10-31T15:42:21;16.00;95.60
60909;DHT22;46780;48.128;-1.704;2022-10-31T15:44:52;15.90;95.50
60909;DHT22;46780;48.128;-1.704;2022-10-31T15:47:22;15.90;95.90